Time;durP1;ratioP1;P1;durP2;ratioP2;P2;SDS_P1;SDS_P2;PMS_P1;PMS_P2;Temp;Humidity;BMP_temperature;BMP_pressure;BME280_temperature;BME280_humidity;BME280_pressure;Samples;Min_cycle;Max_cycle;Signal;HPM_P1;HPM_P2
2021/04/19 00:00:27;;;;;;;11.52;10.32;;;6.40;99.90;;;;;;5067968;28;20196;-71
2021/04/19 00:02:53;;;;;;;14.38;10.65;;;6.40;99.90;;;;;;5068782;28;20319;-72
2021/04/19 00:05:20;;;;;;;11.77;9.73;;;6.40;99.90;;;;;;5068265;28;20694;-71
2021/04/19 00:07:47;;;;;;;13.77;9.75;;;6.50;99.90;;;;;;5068263;28;20774;-71
2021/04/19 00:10:15;;;;;;;12.52;9.85;;;6.50;99.90;;;;;;5067850;28;20216;-73
2021/04/19 00:12:42;;;;;;;10.68;9.07;;;6.50;99.90;;;;;;5068001;28;20703;-72
2021/04/19 00:15:11;;;;;;;16.63;10.40;;;6.50;99.90;;;;;;5068540;28;20698;-72
2021/04/19 00:17:37;;;;;;;14.82;9.77;;;6.50;99.90;;;;;;5068087;28;20215;-72
2021/04/19 00:20:06;;;;;;;13.95;9.40;;;6.40;99.90;;;;;;5068373;28;20443;-72
2021/04/19 00:22:33;;;;;;;13.60;10.07;;;6.40;99.90;;;;;;5068005;28;20551;-71
2021/04/19 00:24:59;;;;;;;13.75;9.10;;;6.40;99.90;;;;;;5066651;28;20209;-71
2021/04/19 00:27:25;;;;;;;14.43;9.15;;;6.40;99.90;;;;;;5068641;28;20577;-71
2021/04/19 00:29:52;;;;;;;11.63;9.93;;;6.40;99.90;;;;;;5068856;28;20228;-74
2021/04/19 00:32:19;;;;;;;13.02;10.02;;;6.40;99.90;;;;;;5068397;28;20208;-72
2021/04/19 00:34:45;;;;;;;11.40;9.70;;;6.40;99.90;;;;;;5068810;28;20672;-71
2021/04/19 00:37:11;;;;;;;15.05;10.40;;;6.30;99.90;;;;;;5068598;28;20207;-72
2021/04/19 00:39:37;;;;;;;11.18;9.93;;;6.30;99.90;;;;;;5068428;28;20219;-72
2021/04/19 00:42:05;;;;;;;14.35;10.10;;;6.20;99.90;;;;;;5068342;28;20211;-71
2021/04/19 00:44:32;;;;;;;12.48;9.48;;;6.10;99.90;;;;;;5068700;28;20200;-73
2021/04/19 00:46:59;;;;;;;11.57;9.25;;;6.00;99.90;;;;;;5068841;28;20253;-74
2021/04/19 00:49:26;;;;;;;11.77;9.25;;;5.90;99.90;;;;;;5068323;28;20228;-73
2021/04/19 00:51:55;;;;;;;12.77;9.18;;;5.90;99.90;;;;;;5068390;28;20694;-71
2021/04/19 00:54:22;;;;;;;11.85;9.27;;;5.90;99.90;;;;;;5068466;28;20703;-71
2021/04/19 00:56:49;;;;;;;11.05;9.13;;;5.80;99.90;;;;;;5068631;28;20197;-72
2021/04/19 00:59:16;;;;;;;14.90;8.50;;;5.90;99.90;;;;;;5068615;28;20266;-71
2021/04/19 01:01:43;;;;;;;12.77;9.18;;;5.80;99.90;;;;;;5067828;28;20215;-73
2021/04/19 01:04:10;;;;;;;10.18;8.70;;;5.90;99.90;;;;;;5068765;28;20226;-73
2021/04/19 01:06:36;;;;;;;11.55;9.23;;;5.80;99.90;;;;;;5068399;28;20252;-71
2021/04/19 01:09:03;;;;;;;10.27;9.07;;;5.80;99.90;;;;;;5068550;28;20224;-71
2021/04/19 01:11:30;;;;;;;10.23;8.30;;;5.70;99.90;;;;;;5067692;28;20261;-73
2021/04/19 01:13:56;;;;;;;12.40;9.25;;;5.70;99.90;;;;;;5068972;28;20227;-71
2021/04/19 01:16:22;;;;;;;12.30;10.30;;;5.70;99.90;;;;;;5068242;28;20201;-71
2021/04/19 01:18:48;;;;;;;12.85;9.98;;;5.70;99.90;;;;;;5068529;28;20350;-71
2021/04/19 01:21:16;;;;;;;12.48;9.98;;;5.70;99.90;;;;;;5067873;28;20209;-71
2021/04/19 01:23:42;;;;;;;11.82;8.65;;;5.70;99.90;;;;;;5068362;28;20205;-71
2021/04/19 01:26:08;;;;;;;12.95;10.07;;;5.80;99.90;;;;;;5068285;28;20672;-72
2021/04/19 01:28:34;;;;;;;10.95;9.43;;;5.80;99.90;;;;;;5067946;28;20292;-72
2021/04/19 01:31:01;;;;;;;14.00;10.63;;;5.80;99.90;;;;;;5067826;28;20291;-73
2021/04/19 01:33:27;;;;;;;10.38;9.23;;;5.90;99.90;;;;;;5068268;28;20196;-74
2021/04/19 01:35:54;;;;;;;12.60;10.23;;;5.90;99.90;;;;;;5068485;28;20212;-74
2021/04/19 01:38:24;;;;;;;13.32;11.05;;;5.90;99.90;;;;;;5068051;28;20220;-73
2021/04/19 01:40:53;;;;;;;14.40;10.43;;;6.00;99.90;;;;;;5068080;28;20201;-72
2021/04/19 01:43:20;;;;;;;13.50;9.82;;;6.00;99.90;;;;;;5068616;28;20679;-75
2021/04/19 01:45:46;;;;;;;12.23;9.63;;;6.00;99.90;;;;;;5068171;28;20209;-76
2021/04/19 01:48:13;;;;;;;12.73;9.85;;;6.10;99.90;;;;;;5069703;28;20342;-73
2021/04/19 01:50:39;;;;;;;10.57;9.40;;;6.10;99.90;;;;;;5071181;28;20216;-74
2021/04/19 01:53:05;;;;;;;11.45;8.73;;;6.10;99.90;;;;;;5071632;28;20196;-73
2021/04/19 01:55:34;;;;;;;11.38;9.40;;;6.10;99.90;;;;;;5071325;28;20215;-73
2021/04/19 01:58:03;;;;;;;11.02;9.93;;;6.10;99.90;;;;;;5071625;28;20204;-72
2021/04/19 02:00:32;;;;;;;10.82;9.27;;;6.00;99.90;;;;;;5070980;28;20339;-72
2021/04/19 02:03:09;;;;;;;12.02;9.68;;;6.00;99.90;;;;;;5071759;28;20295;-72
2021/04/19 02:05:45;;;;;;;10.32;9.32;;;5.90;99.90;;;;;;5071196;28;20211;-73
2021/04/19 02:08:27;;;;;;;9.93;8.55;;;5.90;99.90;;;;;;5071616;28;20224;-74
2021/04/19 02:11:03;;;;;;;10.20;8.85;;;5.90;99.90;;;;;;5071651;28;20204;-71
2021/04/19 02:13:38;;;;;;;12.10;10.38;;;5.90;99.90;;;;;;5071689;28;20615;-72
2021/04/19 02:16:13;;;;;;;15.40;8.65;;;5.90;99.90;;;;;;5071222;28;20200;-72
2021/04/19 02:18:46;;;;;;;12.25;8.55;;;5.90;99.90;;;;;;5071246;28;20216;-73
2021/04/19 02:21:16;;;;;;;12.23;9.60;;;5.90;99.90;;;;;;5070760;28;20208;-72
2021/04/19 02:23:49;;;;;;;13.40;10.10;;;5.90;99.90;;;;;;5071189;28;20200;-74
2021/04/19 02:26:22;;;;;;;12.23;10.00;;;5.90;99.90;;;;;;5071146;28;20212;-72
2021/04/19 02:28:52;;;;;;;13.25;10.40;;;6.00;99.90;;;;;;5071068;28;20225;-72
2021/04/19 02:31:21;;;;;;;14.60;11.10;;;6.00;99.90;;;;;;5071043;28;20196;-73
2021/04/19 02:33:50;;;;;;;13.02;10.48;;;6.10;99.90;;;;;;5071274;28;20205;-75
2021/04/19 02:36:17;;;;;;;15.85;11.68;;;6.10;99.90;;;;;;5071113;28;20245;-73
2021/04/19 02:38:48;;;;;;;14.05;11.18;;;6.10;99.90;;;;;;5070902;28;20220;-73
2021/04/19 02:41:17;;;;;;;16.98;11.57;;;6.10;99.90;;;;;;5070373;28;20197;-73
2021/04/19 02:43:45;;;;;;;17.00;11.82;;;6.10;99.90;;;;;;5070705;28;20567;-73
2021/04/19 02:46:12;;;;;;;14.32;12.05;;;6.10;99.90;;;;;;5070760;28;20700;-73
2021/04/19 02:48:39;;;;;;;14.93;12.88;;;6.10;99.90;;;;;;5070261;28;20224;-73
2021/04/19 02:51:07;;;;;;;14.98;12.70;;;6.10;99.90;;;;;;5070061;28;20205;-74
2021/04/19 02:53:35;;;;;;;14.35;11.50;;;6.10;99.90;;;;;;5070435;28;20227;-74
2021/04/19 02:56:03;;;;;;;14.95;11.30;;;6.10;99.90;;;;;;5070944;28;20568;-74
2021/04/19 02:58:38;;;;;;;18.55;12.65;;;6.10;99.90;;;;;;5069915;28;20212;-73
2021/04/19 03:01:06;;;;;;;13.68;10.45;;;6.10;99.90;;;;;;5083434;22;20205;-73
2021/04/19 03:03:34;;;;;;;17.10;12.73;;;6.10;99.90;;;;;;5069967;28;20798;-72
2021/04/19 03:06:01;;;;;;;16.05;12.40;;;6.20;99.90;;;;;;5070178;28;20223;-72
2021/04/19 03:08:31;;;;;;;17.10;12.48;;;6.20;99.90;;;;;;5075757;28;20691;-72
2021/04/19 03:11:02;;;;;;;16.73;12.07;;;6.20;99.90;;;;;;5089848;28;20208;-72
2021/04/19 03:13:30;;;;;;;17.10;12.85;;;6.20;99.90;;;;;;5090417;28;20207;-72
2021/04/19 03:15:58;;;;;;;15.20;13.30;;;6.10;99.90;;;;;;5090379;28;20678;-72
2021/04/19 03:18:26;;;;;;;17.15;13.20;;;6.10;99.90;;;;;;5090176;28;20634;-72
2021/04/19 03:21:05;;;;;;;13.70;12.30;;;6.10;99.90;;;;;;5089840;28;20663;-72
2021/04/19 03:23:32;;;;;;;14.60;12.88;;;6.20;99.90;;;;;;5090052;28;20634;-72
2021/04/19 03:26:01;;;;;;;15.88;12.18;;;6.10;99.90;;;;;;5089973;28;20207;-72
2021/04/19 03:28:30;;;;;;;15.20;12.30;;;6.10;99.90;;;;;;5089826;28;20227;-72
2021/04/19 03:30:57;;;;;;;20.58;13.63;;;6.20;99.90;;;;;;5089558;28;20689;-72
2021/04/19 03:33:25;;;;;;;16.23;12.93;;;6.20;99.90;;;;;;5089954;28;20210;-72
2021/04/19 03:35:52;;;;;;;16.45;12.45;;;6.20;99.90;;;;;;5090195;28;20470;-72
2021/04/19 03:38:21;;;;;;;15.45;11.45;;;6.20;99.90;;;;;;5085537;28;20223;-72
2021/04/19 03:40:49;;;;;;;14.13;11.52;;;6.30;99.90;;;;;;5069045;28;20200;-72
2021/04/19 03:43:20;;;;;;;13.18;10.80;;;6.30;99.90;;;;;;5069563;28;20694;-72
2021/04/19 03:45:50;;;;;;;14.65;10.70;;;6.20;99.90;;;;;;5069774;28;20740;-72
2021/04/19 03:48:20;;;;;;;17.25;12.60;;;6.20;99.90;;;;;;5069398;28;20715;-73
2021/04/19 03:50:51;;;;;;;14.77;13.20;;;6.20;99.90;;;;;;5069174;28;20200;-73
2021/04/19 03:53:18;;;;;;;18.27;14.35;;;6.20;99.90;;;;;;5069583;28;20890;-73
2021/04/19 03:55:47;;;;;;;15.63;12.70;;;6.20;99.90;;;;;;5069464;28;20249;-73
2021/04/19 03:58:16;;;;;;;20.00;14.52;;;6.20;99.90;;;;;;5069299;28;20745;-72
2021/04/19 04:00:44;;;;;;;18.85;14.30;;;6.20;99.90;;;;;;5068779;28;20209;-72
2021/04/19 04:03:11;;;;;;;20.50;13.90;;;6.30;99.90;;;;;;5069173;28;20675;-72
2021/04/19 04:05:39;;;;;;;18.13;13.50;;;6.30;99.90;;;;;;5069230;28;20215;-72
2021/04/19 04:08:08;;;;;;;18.77;14.82;;;6.30;99.90;;;;;;5068943;28;20200;-72
2021/04/19 04:10:35;;;;;;;16.85;14.48;;;6.30;99.90;;;;;;5068366;28;20671;-72
2021/04/19 04:13:01;;;;;;;19.02;13.60;;;6.30;99.90;;;;;;5069091;28;20435;-72
2021/04/19 04:15:27;;;;;;;16.25;13.02;;;6.40;99.90;;;;;;5068793;28;20554;-71
2021/04/19 04:17:53;;;;;;;19.42;15.40;;;6.40;99.90;;;;;;5069034;28;20239;-71
2021/04/19 04:20:20;;;;;;;19.00;14.00;;;6.40;99.90;;;;;;5068963;28;20212;-71
2021/04/19 04:22:48;;;;;;;16.95;13.98;;;6.40;99.90;;;;;;5069302;28;20196;-71
2021/04/19 04:25:16;;;;;;;19.67;15.20;;;6.40;99.90;;;;;;5067745;28;20271;-71
2021/04/19 04:27:42;;;;;;;19.95;15.30;;;6.50;99.90;;;;;;5068830;28;20277;-71
2021/04/19 04:30:09;;;;;;;19.60;14.85;;;6.50;99.90;;;;;;5066648;28;20228;-71
2021/04/19 04:32:36;;;;;;;20.15;14.43;;;6.50;99.90;;;;;;5065785;28;20204;-71
2021/04/19 04:35:03;;;;;;;18.20;14.95;;;6.50;99.90;;;;;;5066484;28;20204;-71
2021/04/19 04:37:29;;;;;;;21.30;15.00;;;6.50;99.90;;;;;;5065931;28;20208;-71
2021/04/19 04:39:56;;;;;;;15.80;13.35;;;6.60;99.90;;;;;;5067782;28;20216;-71
2021/04/19 04:42:25;;;;;;;18.42;14.45;;;6.60;99.90;;;;;;5068226;28;20365;-71
2021/04/19 04:44:51;;;;;;;20.10;15.15;;;6.60;99.90;;;;;;5068635;28;20205;-71
2021/04/19 04:47:24;;;;;;;20.08;14.68;;;6.50;99.90;;;;;;5068604;28;20208;-71
2021/04/19 04:49:56;;;;;;;18.55;14.43;;;6.60;99.90;;;;;;5068544;28;20266;-71
2021/04/19 04:52:23;;;;;;;18.77;13.88;;;6.50;99.90;;;;;;5068041;28;20204;-71
2021/04/19 04:54:50;;;;;;;18.35;15.23;;;6.50;99.90;;;;;;5068353;28;20204;-71
2021/04/19 04:57:22;;;;;;;21.63;16.95;;;6.50;99.90;;;;;;5068193;28;20504;-71
2021/04/19 04:59:50;;;;;;;19.10;14.82;;;6.50;99.90;;;;;;5068510;28;20243;-71
2021/04/19 05:02:20;;;;;;;21.05;15.63;;;6.50;99.90;;;;;;5067671;28;20691;-72
2021/04/19 05:04:48;;;;;;;18.90;16.08;;;6.60;99.90;;;;;;5068501;28;20281;-71
2021/04/19 05:07:15;;;;;;;19.70;15.90;;;6.60;99.90;;;;;;5068240;28;20196;-71
2021/04/19 05:09:44;;;;;;;23.00;17.17;;;6.60;99.90;;;;;;5068410;28;20221;-73
2021/04/19 05:12:12;;;;;;;21.10;15.98;;;6.60;99.90;;;;;;5067807;28;20205;-71
2021/04/19 05:14:39;;;;;;;18.38;15.00;;;6.60;99.90;;;;;;5068461;28;20577;-73
2021/04/19 05:17:06;;;;;;;21.48;15.48;;;6.60;99.90;;;;;;5068053;28;20629;-70
2021/04/19 05:19:32;;;;;;;19.25;15.57;;;6.60;99.90;;;;;;5068186;28;20225;-70
2021/04/19 05:21:58;;;;;;;18.50;14.15;;;6.60;99.90;;;;;;5067583;28;20197;-70
2021/04/19 05:24:25;;;;;;;25.23;16.52;;;6.60;99.90;;;;;;5071769;28;20204;-71
2021/04/19 05:26:51;;;;;;;16.02;13.35;;;6.60;99.90;;;;;;5072309;28;20298;-71
2021/04/19 05:29:17;;;;;;;19.80;14.32;;;6.70;99.90;;;;;;5071665;28;20253;-71
2021/04/19 05:31:44;;;;;;;21.42;14.68;;;6.60;99.90;;;;;;5071540;28;20664;-70
2021/04/19 05:34:11;;;;;;;20.77;15.55;;;6.60;99.90;;;;;;5071781;28;20208;-72
2021/04/19 05:36:39;;;;;;;20.35;14.18;;;6.60;99.90;;;;;;5071933;28;20696;-71
2021/04/19 05:39:07;;;;;;;20.98;15.35;;;6.50;99.90;;;;;;5071604;28;20298;-71
2021/04/19 05:41:33;;;;;;;21.23;14.30;;;6.40;99.90;;;;;;5071427;28;20466;-71
2021/04/19 05:44:02;;;;;;;16.83;14.10;;;6.40;99.90;;;;;;5071875;28;20227;-71
2021/04/19 05:46:28;;;;;;;16.30;14.48;;;6.40;99.90;;;;;;5071789;28;20295;-71
2021/04/19 05:48:55;;;;;;;18.85;13.80;;;6.50;99.90;;;;;;5071644;28;20222;-71
2021/04/19 05:51:27;;;;;;;19.15;14.60;;;6.50;99.90;;;;;;5070843;28;20212;-71
2021/04/19 05:53:56;;;;;;;16.85;13.20;;;6.50;99.90;;;;;;5071621;28;20200;-71
2021/04/19 05:56:30;;;;;;;17.63;13.00;;;6.50;99.90;;;;;;5071405;28;20652;-71
2021/04/19 05:59:06;;;;;;;18.55;14.80;;;6.50;99.90;;;;;;5071478;28;20224;-71
2021/04/19 06:01:37;;;;;;;17.08;14.55;;;6.40;99.90;;;;;;5070970;28;20277;-71
2021/04/19 06:04:11;;;;;;;17.58;14.18;;;6.50;99.90;;;;;;5071255;28;20212;-71
2021/04/19 06:06:43;;;;;;;18.20;14.82;;;6.40;99.90;;;;;;5071592;28;20342;-71
2021/04/19 06:09:14;;;;;;;16.77;13.30;;;6.40;99.90;;;;;;5070921;28;20259;-71
2021/04/19 06:11:42;;;;;;;14.68;13.00;;;6.40;99.90;;;;;;5071064;28;20211;-71
2021/04/19 06:14:10;;;;;;;20.35;14.23;;;6.40;99.90;;;;;;5071037;28;20211;-71
2021/04/19 06:16:38;;;;;;;18.23;14.50;;;6.40;99.90;;;;;;5071564;28;20552;-71
2021/04/19 06:19:07;;;;;;;17.63;14.60;;;6.30;99.90;;;;;;5070704;28;20217;-71
2021/04/19 06:21:34;;;;;;;19.30;14.65;;;6.30;99.90;;;;;;5070789;28;20249;-71
2021/04/19 06:24:02;;;;;;;18.08;14.77;;;6.20;99.90;;;;;;5070941;28;20203;-71
2021/04/19 06:26:39;;;;;;;17.38;14.05;;;6.30;99.90;;;;;;5071337;28;20675;-71
2021/04/19 06:29:08;;;;;;;16.27;13.48;;;6.30;99.90;;;;;;5070098;28;20750;-71
2021/04/19 06:31:36;;;;;;;16.88;14.00;;;6.30;99.90;;;;;;5071075;28;20295;-71
2021/04/19 06:34:06;;;;;;;17.27;14.25;;;6.30;99.90;;;;;;5070653;28;20553;-71
2021/04/19 06:36:34;;;;;;;21.42;15.63;;;6.30;99.90;;;;;;5071499;28;20204;-72
2021/04/19 06:39:00;;;;;;;17.23;14.48;;;6.30;99.90;;;;;;5070994;28;20355;-71
2021/04/19 06:41:28;;;;;;;16.50;14.40;;;6.30;99.90;;;;;;5070845;28;20200;-71
2021/04/19 06:43:56;;;;;;;19.13;14.55;;;6.30;99.90;;;;;;5071103;28;20253;-71
2021/04/19 06:46:24;;;;;;;17.55;14.90;;;6.30;99.90;;;;;;5071234;28;20589;-72
2021/04/19 06:48:51;;;;;;;21.00;14.30;;;6.30;99.90;;;;;;5064168;28;20236;-71
2021/04/19 06:51:19;;;;;;;18.67;15.10;;;6.30;99.90;;;;;;5066767;28;20667;-71
2021/04/19 06:53:45;;;;;;;21.60;15.30;;;6.30;99.90;;;;;;5060770;28;20208;-71
2021/04/19 06:56:13;;;;;;;18.15;14.07;;;6.30;99.90;;;;;;5068282;28;20204;-72
2021/04/19 06:58:41;;;;;;;18.80;14.68;;;6.30;99.90;;;;;;5064736;28;20225;-71
2021/04/19 07:01:08;;;;;;;21.33;14.98;;;6.30;99.90;;;;;;5067965;28;20232;-71
2021/04/19 07:03:35;;;;;;;19.85;15.93;;;6.40;99.90;;;;;;5051159;28;20204;-72
2021/04/19 07:06:03;;;;;;;22.05;15.05;;;6.30;99.90;;;;;;5062281;28;20205;-71
2021/04/19 07:08:34;;;;;;;19.00;14.50;;;6.40;99.90;;;;;;5067270;28;20291;-71
2021/04/19 07:11:03;;;;;;;23.05;15.73;;;6.40;99.90;;;;;;5066561;28;20212;-71
2021/04/19 07:13:30;;;;;;;20.08;13.90;;;6.50;99.90;;;;;;5069284;28;20228;-71
2021/04/19 07:15:57;;;;;;;19.15;15.82;;;6.50;99.90;;;;;;5067616;28;20215;-71
2021/04/19 07:18:24;;;;;;;20.00;14.75;;;6.50;99.90;;;;;;5069653;28;20227;-71
2021/04/19 07:20:50;;;;;;;20.45;15.07;;;6.40;99.90;;;;;;5069465;28;20571;-71
2021/04/19 07:23:16;;;;;;;17.48;14.30;;;6.40;99.90;;;;;;5069430;28;20200;-71
2021/04/19 07:25:45;;;;;;;18.30;14.85;;;6.40;99.90;;;;;;5067261;28;20215;-71
2021/04/19 07:28:13;;;;;;;20.80;15.30;;;6.50;99.90;;;;;;5068363;28;20307;-71
2021/04/19 07:30:40;;;;;;;15.95;13.82;;;6.40;99.90;;;;;;5068751;28;20259;-71
2021/04/19 07:33:23;;;;;;;19.40;14.82;;;6.40;99.90;;;;;;5069450;28;20205;-71
2021/04/19 07:35:49;;;;;;;17.05;12.95;;;6.40;99.90;;;;;;5067130;28;20618;-71
2021/04/19 07:38:15;;;;;;;16.42;12.80;;;6.30;99.90;;;;;;5068942;28;20224;-71
2021/04/19 07:40:43;;;;;;;20.92;14.25;;;6.30;99.90;;;;;;5067917;28;20682;-71
2021/04/19 07:43:16;;;;;;;19.52;15.00;;;6.20;99.90;;;;;;5068708;28;20196;-71
2021/04/19 07:45:57;;;;;;;18.58;15.07;;;6.20;99.90;;;;;;5065431;28;20208;-71
2021/04/19 07:48:35;;;;;;;19.25;15.02;;;6.30;99.90;;;;;;5068926;28;20220;-71
2021/04/19 07:51:26;;;;;;;19.23;13.73;;;6.40;99.90;;;;;;5068007;28;20200;-71
2021/04/19 07:54:19;;;;;;;19.63;15.02;;;6.40;99.90;;;;;;5067761;28;20200;-71
2021/04/19 07:57:04;;;;;;;17.35;12.80;;;6.50;99.90;;;;;;5065274;28;20200;-71
2021/04/19 07:59:33;;;;;;;21.00;14.20;;;6.50;99.90;;;;;;5068849;28;20261;-71
2021/04/19 08:02:00;;;;;;;17.23;14.15;;;6.50;99.90;;;;;;5067480;28;20205;-71
2021/04/19 08:04:27;;;;;;;20.17;14.20;;;6.50;99.90;;;;;;5067744;28;20204;-71
2021/04/19 08:06:54;;;;;;;18.38;13.65;;;6.50;99.90;;;;;;5064854;28;20211;-71
2021/04/19 08:09:25;;;;;;;17.70;13.75;;;6.50;99.90;;;;;;5068185;28;20264;-71
2021/04/19 08:11:57;;;;;;;17.42;13.88;;;6.40;99.90;;;;;;5067983;28;20201;-71
2021/04/19 08:14:26;;;;;;;22.70;14.43;;;6.40;99.90;;;;;;5068012;28;20295;-71
2021/04/19 08:17:12;;;;;;;17.65;14.45;;;6.50;99.90;;;;;;5063670;28;20240;-71
2021/04/19 08:19:40;;;;;;;18.15;14.27;;;6.50;99.90;;;;;;5067134;28;20224;-71
2021/04/19 08:22:17;;;;;;;20.88;14.52;;;6.50;99.90;;;;;;5067165;28;20269;-71
2021/04/19 08:24:45;;;;;;;18.85;14.43;;;6.60;99.90;;;;;;5067462;28;20234;-71
2021/04/19 08:27:19;;;;;;;16.70;13.23;;;6.60;99.90;;;;;;5064146;28;20209;-71
2021/04/19 08:29:47;;;;;;;19.65;15.00;;;6.60;99.90;;;;;;5068103;28;20274;-71
2021/04/19 08:32:16;;;;;;;19.85;15.05;;;6.70;99.90;;;;;;5065974;28;20208;-71
2021/04/19 08:34:42;;;;;;;22.00;14.40;;;6.80;99.90;;;;;;5067193;28;20269;-71
2021/04/19 08:37:10;;;;;;;20.58;13.40;;;6.80;99.90;;;;;;5064183;28;20206;-71
2021/04/19 08:39:39;;;;;;;19.50;13.77;;;6.80;99.90;;;;;;5067461;28;20220;-71
2021/04/19 08:42:07;;;;;;;17.10;13.77;;;6.80;99.90;;;;;;5066825;28;20204;-71
2021/04/19 08:44:35;;;;;;;19.02;13.35;;;6.90;99.90;;;;;;5067359;28;20196;-71
2021/04/19 08:47:03;;;;;;;17.08;13.82;;;6.90;99.90;;;;;;5063985;28;20631;-71
2021/04/19 08:49:31;;;;;;;15.30;13.23;;;6.90;99.90;;;;;;5068322;28;20232;-71
2021/04/19 08:51:58;;;;;;;21.63;14.70;;;6.90;99.90;;;;;;5067768;28;20203;-71
2021/04/19 08:54:25;;;;;;;16.83;13.45;;;7.00;99.90;;;;;;5068738;28;20234;-71
2021/04/19 08:56:52;;;;;;;18.35;13.70;;;7.10;99.90;;;;;;5067267;28;20211;-72
2021/04/19 08:59:19;;;;;;;16.20;13.65;;;7.00;99.90;;;;;;5071934;28;20219;-72
2021/04/19 09:01:46;;;;;;;17.52;12.90;;;7.10;99.90;;;;;;5072210;28;20208;-71
2021/04/19 09:04:13;;;;;;;16.98;13.57;;;7.20;99.90;;;;;;5071070;28;20200;-71
2021/04/19 09:06:41;;;;;;;20.52;15.07;;;7.20;99.90;;;;;;5069181;28;20200;-71
2021/04/19 09:09:12;;;;;;;20.58;14.95;;;7.20;99.90;;;;;;5070686;28;20232;-72
2021/04/19 09:11:38;;;;;;;18.55;15.32;;;7.00;99.90;;;;;;5071485;28;20261;-71
2021/04/19 09:14:06;;;;;;;19.23;14.25;;;6.90;99.90;;;;;;5071194;28;20211;-71
2021/04/19 09:16:39;;;;;;;22.00;16.02;;;6.80;99.90;;;;;;5068277;28;20234;-71
2021/04/19 09:19:06;;;;;;;19.67;15.75;;;6.70;99.90;;;;;;5070087;28;20281;-71
2021/04/19 09:21:38;;;;;;;19.10;15.48;;;6.70;99.90;;;;;;5070565;28;20200;-71
2021/04/19 09:24:06;;;;;;;22.92;14.95;;;6.70;99.90;;;;;;5071127;28;20575;-71
2021/04/19 09:26:46;;;;;;;21.95;16.55;;;6.70;99.90;;;;;;5068594;28;20196;-71
2021/04/19 09:29:45;;;;;;;23.58;16.05;;;6.70;99.90;;;;;;5070232;28;20591;-71
2021/04/19 09:32:23;;;;;;;19.63;15.55;;;6.70;99.90;;;;;;5070042;28;20215;-71
2021/04/19 09:34:53;;;;;;;21.20;17.08;;;6.70;99.90;;;;;;5070283;28;20478;-71
2021/04/19 09:37:21;;;;;;;23.73;15.38;;;6.80;99.90;;;;;;5067567;28;20664;-71
2021/04/19 09:40:01;;;;;;;19.08;15.05;;;6.80;99.90;;;;;;5070402;28;20221;-71
2021/04/19 09:43:05;;;;;;;21.10;16.90;;;6.80;99.90;;;;;;5071345;28;20627;-71
2021/04/19 09:45:53;;;;;;;19.63;15.15;;;6.90;99.90;;;;;;5068166;28;20600;-71
2021/04/19 09:48:42;;;;;;;20.15;14.57;;;6.90;99.90;;;;;;5052467;28;20225;-71
2021/04/19 09:51:13;;;;;;;22.92;15.20;;;6.90;99.90;;;;;;5070391;28;20224;-71
2021/04/19 09:53:41;;;;;;;22.63;16.77;;;7.00;99.90;;;;;;5069877;28;20558;-71
2021/04/19 09:56:08;;;;;;;21.90;16.92;;;6.90;99.90;;;;;;5067478;28;20209;-71
2021/04/19 09:58:38;;;;;;;20.52;16.17;;;6.90;99.90;;;;;;5069878;28;20217;-71
2021/04/19 10:01:04;;;;;;;23.63;16.42;;;6.90;99.90;;;;;;5069705;28;20232;-71
2021/04/19 10:03:33;;;;;;;19.15;15.52;;;7.00;99.90;;;;;;5070876;28;20230;-71
2021/04/19 10:06:02;;;;;;;23.15;15.98;;;7.00;99.90;;;;;;5068027;28;20638;-71
2021/04/19 10:08:30;;;;;;;23.83;16.80;;;7.00;99.90;;;;;;5069838;28;20257;-71
2021/04/19 10:10:58;;;;;;;21.90;17.52;;;7.10;99.90;;;;;;5069648;28;20235;-71
2021/04/19 10:13:30;;;;;;;19.70;17.00;;;7.10;99.90;;;;;;5070573;28;20228;-70
2021/04/19 10:16:05;;;;;;;22.92;16.80;;;7.20;99.90;;;;;;5069847;28;20204;-70
2021/04/19 10:18:32;;;;;;;20.52;16.08;;;7.30;99.90;;;;;;5070336;28;20235;-70
2021/04/19 10:20:58;;;;;;;22.08;15.73;;;7.40;99.90;;;;;;5070714;28;20192;-71
2021/04/19 10:23:35;;;;;;;23.50;16.42;;;7.50;99.90;;;;;;5071111;28;20204;-70
2021/04/19 10:26:02;;;;;;;18.30;15.68;;;7.50;99.90;;;;;;5070940;28;20261;-71
2021/04/19 10:28:32;;;;;;;29.85;16.40;;;7.60;99.90;;;;;;5070621;28;20220;-70
2021/04/19 10:31:20;;;;;;;19.80;16.05;;;7.60;99.90;;;;;;5070366;28;20217;-71
2021/04/19 10:33:48;;;;;;;24.10;17.40;;;7.60;99.90;;;;;;5065987;28;20683;-71
2021/04/19 10:36:17;;;;;;;23.70;16.25;;;7.60;99.90;;;;;;5070901;28;20200;-71
2021/04/19 10:38:45;;;;;;;24.92;17.30;;;7.80;99.90;;;;;;5070681;28;20230;-71
2021/04/19 10:41:12;;;;;;;22.20;17.08;;;7.90;99.90;;;;;;5070163;28;20208;-71
2021/04/19 10:43:41;;;;;;;23.17;17.25;;;7.90;99.90;;;;;;5070766;28;20215;-71
2021/04/19 10:46:34;;;;;;;21.15;16.20;;;7.90;99.90;;;;;;5070689;28;20200;-71
2021/04/19 10:49:02;;;;;;;23.38;16.30;;;7.90;99.90;;;;;;5034855;28;20254;-70
2021/04/19 10:51:30;;;;;;;22.95;18.27;;;8.00;99.90;;;;;;5070108;28;20200;-71
2021/04/19 10:53:58;;;;;;;24.77;16.98;;;8.00;99.90;;;;;;5070518;28;20291;-70
2021/04/19 10:56:26;;;;;;;27.73;18.02;;;8.10;99.90;;;;;;5070523;28;20200;-70
2021/04/19 10:58:54;;;;;;;23.38;18.23;;;8.10;99.90;;;;;;5070326;28;20235;-71
2021/04/19 11:01:23;;;;;;;23.25;17.23;;;8.00;99.90;;;;;;5070461;28;20212;-71
2021/04/19 11:03:49;;;;;;;23.98;16.80;;;8.10;99.90;;;;;;5070691;28;20204;-71
2021/04/19 11:06:17;;;;;;;18.27;14.40;;;8.20;99.90;;;;;;5070565;28;20224;-71
2021/04/19 11:08:48;;;;;;;20.23;16.50;;;8.20;99.90;;;;;;5070312;28;20654;-71
2021/04/19 11:11:22;;;;;;;20.85;15.68;;;8.30;99.90;;;;;;5069533;28;20699;-70
2021/04/19 11:13:48;;;;;;;23.45;16.83;;;8.40;99.90;;;;;;5069903;28;20197;-70
2021/04/19 11:16:20;;;;;;;17.92;15.52;;;8.50;99.90;;;;;;5069931;28;20242;-70
2021/04/19 11:18:47;;;;;;;19.02;14.00;;;8.60;99.90;;;;;;5062235;28;20220;-71
2021/04/19 11:21:28;;;;;;;17.50;13.95;;;8.70;99.90;;;;;;5061252;28;20925;-71
2021/04/19 11:24:08;;;;;;;17.45;14.30;;;8.80;99.90;;;;;;5069219;28;20575;-71
2021/04/19 11:26:35;;;;;;;18.45;14.57;;;8.80;99.90;;;;;;5064053;28;20197;-71
2021/04/19 11:29:01;;;;;;;19.77;13.93;;;8.80;99.90;;;;;;5064783;28;21015;-71
2021/04/19 11:31:39;;;;;;;18.52;14.10;;;8.90;99.90;;;;;;5067357;28;20212;-71
2021/04/19 11:34:07;;;;;;;16.27;13.05;;;9.10;99.90;;;;;;5052616;28;20678;-71
2021/04/19 11:36:39;;;;;;;13.55;11.65;;;8.90;99.90;;;;;;5066740;28;20196;-71
2021/04/19 11:39:14;;;;;;;17.48;13.02;;;8.90;99.90;;;;;;5065252;28;20231;-71
2021/04/19 11:41:40;;;;;;;13.30;11.15;;;8.90;99.90;;;;;;5065908;28;20207;-71
2021/04/19 11:44:06;;;;;;;13.00;11.27;;;8.80;99.90;;;;;;5066607;28;20291;-71
2021/04/19 11:46:40;;;;;;;13.30;11.00;;;8.80;99.90;;;;;;5063244;28;20208;-71
2021/04/19 11:49:08;;;;;;;15.52;12.18;;;8.90;99.90;;;;;;5068148;28;20228;-70
2021/04/19 11:51:34;;;;;;;13.95;12.15;;;8.90;99.90;;;;;;5068483;28;20200;-71
2021/04/19 11:54:01;;;;;;;14.25;11.23;;;9.00;99.90;;;;;;5068623;28;20201;-71
2021/04/19 11:56:27;;;;;;;14.35;12.25;;;9.20;99.90;;;;;;5068969;28;20208;-70
2021/04/19 11:58:53;;;;;;;12.25;10.02;;;9.20;99.90;;;;;;5068372;28;20605;-70
2021/04/19 12:01:21;;;;;;;17.45;13.07;;;9.20;99.90;;;;;;5067803;28;20295;-70
2021/04/19 12:03:50;;;;;;;13.05;10.93;;;9.30;99.90;;;;;;5068331;28;20225;-70
2021/04/19 12:06:17;;;;;;;13.88;12.13;;;9.40;99.90;;;;;;5069380;28;20288;-70
2021/04/19 12:08:45;;;;;;;14.85;11.63;;;9.40;99.90;;;;;;5068334;28;20271;-71
2021/04/19 12:11:12;;;;;;;15.35;11.20;;;9.50;99.90;;;;;;5068122;28;20496;-71
2021/04/19 12:13:38;;;;;;;14.60;11.55;;;9.50;99.90;;;;;;5068411;28;20269;-70
2021/04/19 12:16:05;;;;;;;13.55;12.02;;;9.70;99.90;;;;;;5067869;28;20671;-70
2021/04/19 12:18:33;;;;;;;14.95;12.40;;;9.60;99.90;;;;;;5068157;28;20224;-70
2021/04/19 12:21:01;;;;;;;14.18;11.60;;;9.40;99.90;;;;;;5067747;28;20290;-70
2021/04/19 12:23:29;;;;;;;16.25;12.95;;;9.20;99.90;;;;;;5068553;28;20208;-70
2021/04/19 12:25:56;;;;;;;16.98;12.85;;;9.20;99.90;;;;;;5067173;28;20211;-70
2021/04/19 12:28:23;;;;;;;15.27;11.80;;;9.20;99.90;;;;;;5066152;28;20423;-70
2021/04/19 12:30:50;;;;;;;18.63;13.40;;;9.20;99.90;;;;;;5067837;28;20216;-71
2021/04/19 12:33:17;;;;;;;17.42;13.00;;;9.30;99.90;;;;;;5068142;28;20197;-70
2021/04/19 12:35:44;;;;;;;15.63;13.90;;;9.30;99.90;;;;;;5068214;28;20671;-70
2021/04/19 12:38:12;;;;;;;13.75;11.02;;;9.30;99.90;;;;;;5067902;28;20274;-70
2021/04/19 12:40:38;;;;;;;15.90;12.70;;;9.30;99.90;;;;;;5067628;28;20209;-70
2021/04/19 12:43:04;;;;;;;15.68;12.60;;;9.30;99.90;;;;;;5067963;28;20787;-71
2021/04/19 12:45:32;;;;;;;17.13;12.57;;;9.30;99.90;;;;;;5068364;28;20582;-70
2021/04/19 12:48:00;;;;;;;16.67;13.20;;;9.40;99.90;;;;;;5067393;28;20300;-70